createdAt,value
2019-04-14T00:06:55.216Z,4.20
2019-04-14T00:09:36.060Z,4.20
2019-04-14T00:12:16.890Z,4.10
2019-04-14T00:14:57.605Z,4.00
2019-04-14T00:17:39.168Z,4.00
2019-04-14T00:20:20.727Z,3.80
2019-04-14T00:22:51.119Z,3.80
2019-04-14T00:25:52.245Z,3.80
2019-04-14T00:28:33.604Z,3.70
2019-04-14T00:31:15.195Z,3.60
2019-04-14T00:33:58.593Z,3.50
2019-04-14T00:39:51.139Z,3.40
2019-04-14T00:45:53.088Z,3.20
2019-04-14T00:48:32.031Z,3.20
2019-04-14T00:51:13.421Z,3.10
2019-04-14T00:53:54.162Z,3.10
2019-04-14T00:56:23.685Z,3.10
2019-04-14T00:58:54.098Z,3.00
2019-04-14T01:01:42.265Z,3.00
2019-04-14T01:04:31.547Z,3.00
2019-04-14T01:07:21.552Z,2.90
2019-04-14T01:10:02.431Z,2.90
2019-04-14T01:12:43.231Z,2.90
2019-04-14T01:15:24.678Z,2.90
2019-04-14T01:18:05.749Z,2.90
2019-04-14T01:20:36.397Z,2.90
2019-04-14T01:23:26.121Z,2.80
2019-04-14T01:26:09.317Z,2.80
2019-04-14T01:28:50.442Z,2.80
2019-04-14T01:31:31.984Z,2.70
2019-04-14T01:34:13.308Z,2.70
2019-04-14T01:36:54.275Z,2.70
2019-04-14T01:39:35.070Z,2.70
2019-04-14T01:42:04.957Z,2.60
2019-04-14T01:47:26.943Z,2.50
2019-04-14T01:50:08.775Z,2.50
2019-04-14T01:56:17.317Z,2.50
2019-04-14T01:58:57.990Z,2.50
2019-04-14T02:01:41.037Z,2.50
2019-04-14T02:04:22.428Z,2.50
2019-04-14T02:07:03.841Z,2.50
2019-04-14T02:09:44.758Z,2.50
2019-04-14T02:12:26.368Z,2.60
2019-04-14T02:15:07.473Z,2.60
2019-04-14T02:17:48.239Z,2.60
2019-04-14T02:20:29.649Z,2.60
2019-04-14T02:23:10.635Z,2.60
2019-04-14T02:25:51.908Z,2.50
2019-04-14T02:28:33.135Z,2.50
2019-04-14T02:31:32.987Z,2.50
2019-04-14T02:34:27.757Z,2.50
2019-04-14T02:37:15.539Z,2.50
2019-04-14T02:40:04.090Z,2.50
2019-04-14T02:42:36.513Z,2.50
2019-04-14T02:45:19.415Z,2.50
2019-04-14T02:48:03.572Z,2.50
2019-04-14T02:50:36.985Z,2.60
2019-04-14T02:53:23.902Z,2.60
2019-04-14T02:56:11.961Z,2.50
2019-04-14T03:04:13.740Z,2.50
2019-04-14T03:06:56.353Z,2.50
2019-04-14T03:12:25.030Z,2.60
2019-04-14T03:15:03.536Z,2.60
2019-04-14T03:21:17.509Z,2.60
2019-04-14T03:24:12.731Z,2.70
2019-04-14T03:29:49.822Z,2.70
2019-04-14T03:32:53.506Z,2.70
2019-04-14T03:38:05.058Z,2.60
2019-04-14T03:40:58.627Z,2.50
2019-04-14T03:43:25.009Z,2.50
2019-04-14T03:46:12.105Z,2.60
2019-04-14T03:51:40.423Z,2.60
2019-04-14T03:54:20.647Z,2.60
2019-04-14T03:56:31.280Z,2.60
2019-04-14T03:59:12.806Z,2.50
2019-04-14T04:01:54.414Z,2.50
2019-04-14T04:04:35.872Z,2.50
2019-04-14T04:07:17.103Z,2.60
2019-04-14T04:10:05.286Z,2.60
2019-04-14T04:12:53.468Z,2.60
2019-04-14T04:15:34.332Z,2.60
2019-04-14T04:18:20.464Z,2.60
2019-04-14T04:21:22.737Z,2.70
2019-04-14T04:27:33.683Z,2.60
2019-04-14T04:30:20.826Z,2.60
2019-04-14T04:33:22.044Z,2.60
2019-04-14T04:36:09.797Z,2.60
2019-04-14T04:38:57.734Z,2.70
2019-04-14T04:41:38.662Z,2.70
2019-04-14T04:44:20.222Z,2.70
2019-04-14T04:47:01.350Z,2.70
2019-04-14T04:49:42.638Z,2.80
2019-04-14T04:52:24.094Z,2.80
2019-04-14T04:55:05.034Z,2.80
2019-04-14T04:57:46.063Z,2.80
2019-04-14T05:00:26.715Z,2.70
2019-04-14T05:03:07.909Z,2.70
2019-04-14T05:05:49.323Z,2.80
2019-04-14T05:08:30.474Z,2.80
2019-04-14T05:11:17.628Z,2.80
2019-04-14T05:14:02.341Z,2.80
2019-04-14T05:16:44.020Z,2.80
2019-04-14T05:19:31.176Z,2.80
2019-04-14T05:22:07.767Z,2.80
2019-04-14T05:24:48.625Z,2.80
2019-04-14T05:27:29.819Z,2.80
2019-04-14T05:30:11.237Z,2.80
2019-04-14T05:32:52.233Z,2.90
2019-04-14T05:35:33.376Z,2.90
2019-04-14T05:38:14.785Z,3.00
2019-04-14T05:40:56.268Z,3.00
2019-04-14T05:43:46.617Z,3.00
2019-04-14T05:46:20.613Z,3.00
2019-04-14T05:49:02.222Z,3.00
2019-04-14T05:51:43.777Z,3.10
2019-04-14T05:54:25.228Z,3.10
2019-04-14T05:57:06.620Z,3.10
2019-04-14T05:59:48.407Z,3.20
2019-04-14T06:02:30.548Z,3.20
2019-04-14T06:05:12.945Z,3.20
2019-04-14T06:07:55.497Z,3.20
2019-04-14T06:10:36.297Z,3.30
2019-04-14T06:13:17.013Z,3.30
2019-04-14T06:15:57.769Z,3.30
2019-04-14T06:18:38.289Z,3.30
2019-04-14T06:21:18.964Z,3.30
2019-04-14T06:23:59.873Z,3.30
2019-04-14T06:26:40.582Z,3.30
2019-04-14T06:29:21.436Z,3.40
2019-04-14T06:35:30.964Z,3.50
2019-04-14T06:38:16.395Z,3.60
2019-04-14T06:41:03.708Z,3.60
2019-04-14T06:43:49.186Z,3.70
2019-04-14T06:46:27.350Z,3.70
2019-04-14T06:49:08.153Z,3.70
2019-04-14T06:51:48.795Z,3.80
2019-04-14T06:54:29.476Z,3.90
2019-04-14T06:57:10.131Z,3.80
2019-04-14T06:59:50.830Z,3.80
2019-04-14T07:02:31.802Z,3.80
2019-04-14T07:05:12.543Z,3.80
2019-04-14T07:07:57.363Z,3.80
2019-04-14T07:10:35.961Z,3.80
2019-04-14T07:13:19.380Z,3.80
2019-04-14T07:15:59.511Z,3.90
2019-04-14T07:18:40.218Z,3.90
2019-04-14T07:21:21.293Z,3.90
2019-04-14T07:24:02.020Z,4.00
2019-04-14T07:26:42.771Z,4.00
2019-04-14T07:29:25.170Z,4.00
2019-04-14T07:35:40.049Z,4.10
2019-04-14T07:38:25.156Z,4.20
2019-04-14T07:41:25.343Z,4.20
2019-04-14T07:44:21.991Z,4.30
2019-04-14T07:47:08.719Z,4.40
2019-04-14T07:50:15.181Z,4.40
2019-04-14T07:53:09.301Z,4.30
2019-04-14T07:56:12.011Z,4.40
2019-04-14T07:59:14.503Z,4.60
2019-04-14T08:02:02.427Z,4.70
2019-04-14T08:04:47.950Z,4.70
2019-04-14T08:07:28.744Z,4.80
2019-04-14T08:10:09.669Z,4.80
2019-04-14T08:12:50.514Z,4.80
2019-04-14T08:15:31.363Z,4.70
2019-04-14T08:18:12.102Z,4.70
2019-04-14T08:20:52.940Z,4.70
2019-04-14T08:23:33.739Z,4.70
2019-04-14T08:26:14.440Z,4.60
2019-04-14T08:28:55.534Z,4.60
2019-04-14T08:31:36.741Z,4.70
2019-04-14T08:34:17.233Z,4.90
2019-04-14T08:36:57.925Z,5.20
2019-04-14T08:39:39.002Z,5.50
2019-04-14T08:42:45.030Z,5.70
2019-04-14T08:45:44.724Z,5.80
2019-04-14T08:48:44.942Z,5.40
2019-04-14T08:51:29.566Z,5.50
2019-04-14T08:54:29.798Z,5.50
2019-04-14T08:57:35.273Z,5.40
2019-04-14T09:00:35.380Z,5.40
2019-04-14T09:03:41.578Z,5.50
2019-04-14T09:06:41.841Z,5.50
2019-04-14T09:09:41.938Z,5.80
2019-04-14T09:12:25.059Z,6.00
2019-04-14T09:15:05.978Z,6.20
2019-04-14T09:17:46.950Z,6.30
2019-04-14T09:20:27.576Z,6.40
2019-04-14T09:23:08.386Z,6.60
2019-04-14T09:25:48.895Z,6.40
2019-04-14T09:28:29.618Z,6.60
2019-04-14T09:31:10.734Z,6.90
2019-04-14T09:33:51.387Z,7.00
2019-04-14T09:36:32.312Z,7.20
2019-04-14T09:39:12.832Z,7.30
2019-04-14T09:41:53.671Z,7.40
2019-04-14T09:44:34.250Z,7.30
2019-04-14T09:47:15.001Z,7.30
2019-04-14T09:49:55.677Z,7.10
2019-04-14T09:52:36.575Z,7.00
2019-04-14T09:55:17.222Z,7.10
2019-04-14T09:57:58.046Z,7.10
2019-04-14T10:00:40.849Z,7.20
2019-04-14T10:03:21.956Z,7.10
2019-04-14T10:06:02.518Z,7.30
2019-04-14T10:08:43.336Z,7.60
2019-04-14T10:11:24.250Z,7.80
2019-04-14T10:14:05.130Z,7.80
2019-04-14T10:16:45.823Z,7.70
2019-04-14T10:19:26.680Z,7.60
2019-04-14T10:22:11.946Z,7.50
2019-04-14T10:24:52.890Z,7.40
2019-04-14T10:27:33.875Z,7.50
2019-04-14T10:30:14.561Z,7.40
2019-04-14T10:32:55.352Z,7.50
2019-04-14T10:35:36.279Z,7.80
2019-04-14T10:38:20.225Z,8.10
2019-04-14T10:41:00.742Z,8.10
2019-04-14T10:43:41.930Z,8.00
2019-04-14T10:46:22.696Z,7.80
2019-04-14T10:49:03.955Z,7.80
2019-04-14T10:51:44.930Z,7.90
2019-04-14T10:54:25.533Z,7.70
2019-04-14T10:57:06.684Z,7.60
2019-04-14T10:59:47.129Z,7.70
2019-04-14T11:02:27.887Z,7.80
2019-04-14T11:05:08.751Z,7.70
2019-04-14T11:07:49.908Z,7.70
2019-04-14T11:10:31.108Z,7.80
2019-04-14T11:13:11.978Z,8.00
2019-04-14T11:15:52.901Z,8.10
2019-04-14T11:18:33.834Z,8.10
2019-04-14T11:21:14.737Z,8.20
2019-04-14T11:23:43.710Z,8.30
2019-04-14T11:26:31.878Z,8.40
2019-04-14T11:29:13.260Z,8.30
2019-04-14T11:32:16.743Z,8.30
2019-04-14T11:38:12.989Z,8.20
2019-04-14T11:40:56.375Z,8.10
2019-04-14T11:43:37.845Z,8.20
2019-04-14T11:46:18.770Z,8.50
2019-04-14T11:48:59.965Z,8.80
2019-04-14T11:51:40.576Z,8.70
2019-04-14T11:54:21.647Z,8.70
2019-04-14T11:57:02.929Z,8.80
2019-04-14T12:03:21.612Z,9.00
2019-04-14T12:09:20.164Z,8.80
2019-04-14T12:12:01.434Z,8.90
2019-04-14T12:14:41.872Z,9.00
2019-04-14T12:17:22.661Z,9.10
2019-04-14T12:20:03.388Z,8.80
2019-04-14T12:22:44.613Z,8.80
2019-04-14T12:25:25.772Z,8.80
2019-04-14T12:28:06.983Z,8.70
2019-04-14T12:30:47.442Z,8.80
2019-04-14T12:33:28.221Z,8.90
2019-04-14T12:36:09.083Z,9.00
2019-04-14T12:38:49.947Z,9.10
2019-04-14T12:41:33.998Z,8.90
2019-04-14T12:44:33.531Z,8.90
2019-04-14T12:47:13.072Z,9.00
2019-04-14T12:49:55.075Z,9.20
2019-04-14T12:52:35.795Z,9.50
2019-04-14T12:55:17.017Z,9.60
2019-04-14T12:57:57.533Z,9.60
2019-04-14T13:00:44.698Z,9.70
2019-04-14T13:03:13.713Z,9.50
2019-04-14T13:06:01.881Z,9.40
2019-04-14T13:08:42.722Z,9.30
2019-04-14T13:11:24.007Z,9.30
2019-04-14T13:14:04.963Z,9.40
2019-04-14T13:16:45.753Z,9.10
2019-04-14T13:19:26.577Z,9.00
2019-04-14T13:22:07.022Z,8.80
2019-04-14T13:24:47.479Z,8.70
2019-04-14T13:27:28.201Z,8.60
2019-04-14T13:30:09.881Z,8.60
2019-04-14T13:32:50.634Z,8.50
2019-04-14T13:35:33.071Z,8.60
2019-04-14T13:38:14.397Z,8.60
2019-04-14T13:40:54.957Z,8.40
2019-04-14T13:43:35.955Z,8.50
2019-04-14T13:46:16.707Z,8.60
2019-04-14T13:48:57.452Z,8.80
2019-04-14T13:51:41.616Z,8.90
2019-04-14T13:54:22.970Z,8.90
2019-04-14T13:56:52.142Z,8.90
2019-04-14T13:59:40.322Z,8.90
2019-04-14T14:02:21.559Z,9.00
2019-04-14T14:05:02.243Z,9.00
2019-04-14T14:07:42.853Z,8.90
2019-04-14T14:10:23.510Z,8.70
2019-04-14T14:13:23.504Z,8.70
2019-04-14T14:16:23.023Z,8.50
2019-04-14T14:19:22.616Z,8.30
2019-04-14T14:22:06.945Z,8.20
2019-04-14T14:24:53.082Z,8.00
2019-04-14T14:27:33.929Z,7.90
2019-04-14T14:30:17.239Z,7.90
2019-04-14T14:32:58.516Z,7.80
2019-04-14T14:35:39.845Z,7.70
2019-04-14T14:38:22.314Z,7.70
2019-04-14T14:41:06.798Z,7.70
2019-04-14T14:43:48.110Z,7.70
2019-04-14T14:46:48.218Z,7.60
2019-04-14T14:49:46.297Z,7.50
2019-04-14T14:52:27.302Z,7.60
2019-04-14T14:55:08.307Z,7.60
2019-04-14T14:57:49.511Z,7.60
2019-04-14T15:00:36.138Z,7.50
2019-04-14T15:03:17.685Z,7.30
2019-04-14T15:05:58.193Z,7.40
2019-04-14T15:08:38.952Z,7.40
2019-04-14T15:11:20.039Z,7.40
2019-04-14T15:14:01.279Z,7.40
2019-04-14T15:16:41.954Z,7.40
2019-04-14T15:19:22.390Z,7.40
2019-04-14T15:22:03.453Z,7.50
2019-04-14T15:24:44.218Z,7.40
2019-04-14T15:27:25.156Z,7.50
2019-04-14T15:30:07.416Z,7.50
2019-04-14T15:32:48.492Z,7.40
2019-04-14T15:35:29.339Z,7.30
2019-04-14T15:38:10.429Z,7.30
2019-04-14T15:40:51.254Z,7.20
2019-04-14T15:43:32.221Z,7.10
2019-04-14T15:46:13.188Z,7.00
2019-04-14T15:48:53.971Z,7.00
2019-04-14T15:51:34.652Z,6.90
2019-04-14T15:54:15.914Z,6.80
2019-04-14T15:57:16.256Z,6.80
2019-04-14T16:00:19.221Z,6.90
2019-04-14T16:03:22.253Z,7.00
2019-04-14T16:09:24.931Z,7.00
2019-04-14T16:12:25.162Z,7.00
2019-04-14T16:15:21.073Z,7.00
2019-04-14T16:18:21.346Z,7.20
2019-04-14T16:21:02.450Z,7.10
2019-04-14T16:23:50.296Z,7.10
2019-04-14T16:26:45.302Z,7.10
2019-04-14T16:29:48.023Z,7.20
2019-04-14T16:32:45.118Z,7.30
2019-04-14T16:35:28.159Z,7.40
2019-04-14T16:38:09.477Z,7.50
2019-04-14T16:40:50.417Z,7.50
2019-04-14T16:43:31.058Z,7.50
2019-04-14T16:46:11.772Z,7.50
2019-04-14T16:48:52.779Z,7.50
2019-04-14T16:51:38.585Z,7.40
2019-04-14T16:54:38.873Z,7.30
2019-04-14T16:57:38.458Z,7.10
2019-04-14T17:03:27.189Z,6.70
2019-04-14T17:06:08.657Z,6.70
2019-04-14T17:08:49.159Z,6.60
2019-04-14T17:11:30.698Z,6.60
2019-04-14T17:14:30.172Z,6.60
2019-04-14T17:17:32.738Z,6.60
2019-04-14T17:20:33.062Z,6.60
2019-04-14T17:23:28.209Z,6.60
2019-04-14T17:26:14.245Z,6.60
2019-04-14T17:28:59.117Z,6.60
2019-04-14T17:31:59.178Z,6.50
2019-04-14T17:34:51.514Z,6.40
2019-04-14T17:37:52.041Z,6.30
2019-04-14T17:40:52.194Z,6.20
2019-04-14T17:43:37.302Z,6.10
2019-04-14T17:46:37.235Z,6.10
2019-04-14T17:52:43.810Z,6.00
2019-04-14T17:55:29.495Z,5.90
2019-04-14T17:58:24.133Z,5.90
2019-04-14T18:01:24.428Z,5.80
2019-04-14T18:04:14.706Z,5.70
2019-04-14T18:07:14.467Z,5.60
2019-04-14T18:10:11.102Z,5.60
2019-04-14T18:13:17.417Z,5.60
2019-04-14T18:16:17.000Z,5.50
2019-04-14T18:19:16.565Z,5.40
2019-04-14T18:21:56.958Z,5.30
2019-04-14T18:24:42.783Z,5.30
2019-04-14T18:27:20.693Z,5.20
2019-04-14T18:33:23.286Z,5.20
2019-04-14T18:36:20.015Z,5.10
2019-04-14T18:39:22.271Z,5.10
2019-04-14T18:42:22.121Z,5.10
2019-04-14T18:45:09.452Z,5.10
2019-04-14T18:47:54.625Z,5.10
2019-04-14T18:50:54.833Z,5.10
2019-04-14T18:53:43.517Z,5.10
2019-04-14T18:56:48.913Z,5.10
2019-04-14T18:59:49.062Z,5.10
2019-04-14T19:02:29.660Z,5.10
2019-04-14T19:05:10.655Z,5.00
2019-04-14T19:07:51.469Z,5.00
2019-04-14T19:10:32.028Z,5.00
2019-04-14T19:13:19.419Z,5.00
2019-04-14T19:16:19.243Z,4.90
2019-04-14T19:19:01.214Z,4.90
2019-04-14T19:21:41.927Z,4.90
2019-04-14T19:24:22.771Z,4.90
2019-04-14T19:27:03.718Z,4.90
2019-04-14T19:29:45.031Z,4.80
2019-04-14T19:32:25.775Z,4.80
2019-04-14T19:35:07.071Z,4.80
2019-04-14T19:37:47.881Z,4.80
2019-04-14T19:40:28.591Z,4.90
2019-04-14T19:43:09.193Z,4.90
2019-04-14T19:45:50.128Z,4.90
2019-04-14T19:48:31.407Z,4.90
2019-04-14T19:51:12.185Z,4.80
2019-04-14T19:53:52.901Z,4.90
2019-04-14T19:56:33.609Z,4.90
2019-04-14T19:59:14.505Z,4.90
2019-04-14T20:01:55.299Z,4.90
2019-04-14T20:04:37.802Z,4.90
2019-04-14T20:07:18.704Z,4.90
2019-04-14T20:09:59.614Z,4.80
2019-04-14T20:12:40.461Z,4.80
2019-04-14T20:15:28.018Z,4.80
2019-04-14T20:18:15.480Z,4.80
2019-04-14T20:21:15.619Z,4.80
2019-04-14T20:24:10.327Z,4.70
2019-04-14T20:26:57.578Z,4.70
2019-04-14T20:29:40.744Z,4.70
2019-04-14T20:32:30.395Z,4.70
2019-04-14T20:35:11.306Z,4.70
2019-04-14T20:37:51.905Z,4.70
2019-04-14T20:40:32.761Z,4.70
2019-04-14T20:43:13.595Z,4.70
2019-04-14T20:45:54.793Z,4.70
2019-04-14T20:48:35.548Z,4.70
2019-04-14T20:51:16.303Z,4.70
2019-04-14T20:53:56.909Z,4.70
2019-04-14T20:56:37.846Z,4.70
2019-04-14T20:59:19.170Z,4.70
2019-04-14T21:02:19.135Z,4.70
2019-04-14T21:05:19.578Z,4.70
2019-04-14T21:08:22.683Z,4.70
2019-04-14T21:14:23.571Z,4.60
2019-04-14T21:17:07.252Z,4.60
2019-04-14T21:20:07.071Z,4.50
2019-04-14T21:22:56.421Z,4.50
2019-04-14T21:25:45.474Z,4.50
2019-04-14T21:28:48.475Z,4.40
2019-04-14T21:31:32.653Z,4.40
2019-04-14T21:34:35.612Z,4.30
2019-04-14T21:37:27.397Z,4.30
2019-04-14T21:40:14.701Z,4.20
2019-04-14T21:42:55.120Z,4.20
2019-04-14T21:45:36.030Z,4.10
2019-04-14T21:48:16.891Z,4.10
2019-04-14T21:50:58.261Z,4.00
2019-04-14T21:56:18.290Z,4.00
2019-04-14T21:59:04.693Z,3.90
2019-04-14T22:02:04.218Z,3.80
2019-04-14T22:05:04.137Z,3.80
2019-04-14T22:08:03.829Z,3.70
2019-04-14T22:13:46.210Z,3.60
2019-04-14T22:16:27.745Z,3.50
2019-04-14T22:19:08.743Z,3.50
2019-04-14T22:21:49.945Z,3.40
2019-04-14T22:24:33.545Z,3.30
2019-04-14T22:27:14.793Z,3.20
2019-04-14T22:29:55.348Z,3.10
2019-04-14T22:32:36.081Z,3.00
2019-04-14T22:35:16.823Z,3.00
2019-04-14T22:37:57.834Z,3.00
2019-04-14T22:40:38.637Z,3.00
2019-04-14T22:43:20.035Z,3.00
2019-04-14T22:46:00.791Z,2.90
2019-04-14T22:48:41.625Z,2.90
2019-04-14T22:51:22.545Z,2.80
2019-04-14T22:54:03.276Z,2.80
2019-04-14T22:56:43.992Z,2.70
2019-04-14T22:59:25.031Z,2.60
2019-04-14T23:08:38.981Z,2.40
2019-04-14T23:11:38.447Z,2.40
2019-04-14T23:14:33.415Z,2.30
2019-04-14T23:17:32.849Z,2.30
2019-04-14T23:20:23.135Z,2.20
2019-04-14T23:23:23.657Z,2.30
2019-04-14T23:26:04.308Z,2.30
2019-04-14T23:28:45.506Z,2.20
2019-04-14T23:31:26.574Z,2.10
2019-04-14T23:34:07.630Z,2.10
2019-04-14T23:36:48.821Z,2.10
2019-04-14T23:39:30.006Z,2.10
2019-04-14T23:42:10.724Z,2.10
2019-04-14T23:44:51.635Z,2.10
2019-04-14T23:47:32.494Z,2.10
2019-04-14T23:50:13.408Z,2.10
2019-04-14T23:52:54.382Z,2.00
2019-04-14T23:55:34.981Z,1.90
2019-04-14T23:58:15.714Z,1.80
